Skip Navigation Links
NOAA logo - Click to go to the NOAA homepage
NOAA's National Weather Service
Alaska Aviation Weather Unit
  NWS logo - Click to go to the NWS homepage
Left Navbar Graphic     23 AKDT = 07 GMT

   
NOAA is celebrating 200 years of science, service, and stewardship. Visit the NOAA 200th celebration Web site to learn more.
USA.gov is the U.S. Government's official Web portal to all Federal, state and local government Web resources and services.
Facebook
NWS on Facebook

Important Change Regarding the AAWU Web Presence

 

Over the last several months, the AAWU has been working to navigate its webpages to a nationally supported server. Security, as well as other needs, have necessitated the change.  In the process, we have made an effort to enhance the functionality of our website, as well as some of our products. As of June 20, 2017, aawu.arh.noaa.gov will be discontinued. The new AAWU web address is weather.gov/aawu. It is now live and will run in-parallel with the old site until it is discontinued. Please send any feedback or questions regarding the new webpages to nws.ar.aawu.webauthors@noaa.gov.  Thank you for your patience during this time of transition.
AAWU Home :: Display TAF Add Bookmark
SPECI PANW 240126Z AUTO 16008KT 10SM -RA BKN008 OVC012 07/06 A2996 RMK
     AO2 CIG 005V010 P0001=

SPECI PANW 240154Z AUTO 17008KT 10SM -RA SCT006 BKN011 OVC024 07/06
 A2995 RMK AO2 P0002=

METAR PANW 240156Z AUTO 16006KT 10SM -RA BKN009 BKN015 OVC024 07/06
     A2995 RMK AO2 CIG 006V012 SLP158 P0002 T00670061=

METAR PANW 240256Z AUTO 15005KT 7SM -RA OVC005 07/07 A2992 RMK AO2
     SLP149 P0004 60007 T00720067 58018=

PANW 240333Z AUTO 15005KT 10SM -RA OVC007 07/07 A2991 RMK AO2 CIG
     004V012 P0001=

SPECI PANW 240346Z AUTO 16008KT 10SM -RA BKN005 BKN009 OVC015 07/07
     A2990 RMK AO2 P0002=

METAR PANW 240356Z AUTO 16008KT 10SM -RA BKN005 OVC009 07/07 A2990 RMK
     AO2 CIG 004V007 SLP141 P0002 T00720067=

SPECI PANW 240403Z AUTO 15007KT 10SM -RA BKN007 OVC012 07/07 A2990 RMK
     AO2 CIG 004V010 P0000=

METAR PANW 240456Z AUTO 15007KT 8SM -RA BKN007 BKN012 OVC025 07/07 A2987
     RMK AO2 CIG 005V009 SLP133 P0005 T00720067=

SPECI PANW 240514Z AUTO 16008KT 7SM -RA BKN005 BKN008 OVC012 07/07 A2987
     RMK AO2 P0003=

METAR PANW 240556Z AUTO 15009G18KT 8SM -RA OVC005 07/07 A2985 RMK
 AO2 CIG 003V007 SLP127 P0006 60020 T00720067 10072 20061 58023=

SPECI PANW 240720Z AUTO 16011KT 1 3/4SM -RA BR OVC003 07/07 A2984 RMK
     AO2 VIS 1 1/4V5 P0001=

SPECI PANW 240727Z AUTO 18009G16KT 3SM -RA BR OVC003 07/07 A2984 RMK AO2
     P0001=

SPECI PANW 240744Z AUTO 19013G19KT 2 1/2SM -RA BR OVC003 07/07 A2984 RMK
     AO2 VIS 2V5 P0002=

SPECI PANW 240750Z AUTO 18009G19KT 5SM -RA BR OVC005 07/07 A2983 RMK AO2
     CIG 003V009 P0002=


NOAA's National Weather Service
Alaska Aviation Weather Unit
6930 Sand Lake Road
Anchorage, AK 99502-1845
Disclaimer
Credits
Glossary
Privacy Policy
About Us
Career Opportunities
Contact AAWU Internet Services Site last modified: April, 17th 2012